Time;durP1;ratioP1;P1;durP2;ratioP2;P2;SDS_P1;SDS_P2;PMS_P1;PMS_P2;Temp;Humidity;BMP_temperature;BMP_pressure;BME280_temperature;BME280_humidity;BME280_pressure;Samples;Min_cycle;Max_cycle;Signal;HPM_P1;HPM_P2
2022/08/22 00:01:42;;;;;;;11.85;4.82;;;15.70;99.90;;;;;;4985324;28;20033;-84
2022/08/22 00:04:27;;;;;;;9.75;5.00;;;15.60;99.90;;;;;;4981469;28;20072;-82
2022/08/22 00:06:56;;;;;;;10.25;4.93;;;15.50;99.90;;;;;;4987622;28;20050;-84
2022/08/22 00:09:39;;;;;;;13.35;5.10;;;15.40;99.90;;;;;;4990215;28;20027;-85
2022/08/22 00:12:20;;;;;;;14.98;5.72;;;15.30;99.90;;;;;;5000736;28;20026;-82
2022/08/22 00:15:02;;;;;;;14.32;5.68;;;15.20;99.90;;;;;;4991288;28;20027;-82
2022/08/22 00:17:43;;;;;;;11.00;5.30;;;15.20;99.90;;;;;;4992171;28;20475;-82
2022/08/22 00:20:34;;;;;;;14.32;5.30;;;15.10;99.90;;;;;;4999546;28;20419;-83
2022/08/22 00:23:18;;;;;;;13.07;6.00;;;15.10;99.90;;;;;;4980086;28;20038;-82
2022/08/22 00:25:57;;;;;;;11.38;5.40;;;15.00;99.90;;;;;;4990688;28;20554;-83
2022/08/22 00:28:40;;;;;;;10.85;5.65;;;14.90;99.90;;;;;;4986711;28;20086;-82
2022/08/22 00:31:20;;;;;;;12.48;6.45;;;14.90;99.90;;;;;;4990665;28;20106;-82
2022/08/22 00:33:52;;;;;;;10.70;6.00;;;14.80;99.90;;;;;;4999072;28;20062;-84
2022/08/22 00:36:27;;;;;;;12.43;5.70;;;14.70;99.90;;;;;;4998747;28;20064;-84
2022/08/22 00:39:08;;;;;;;14.05;5.90;;;14.60;99.90;;;;;;4979172;28;20074;-84
2022/08/22 00:41:43;;;;;;;10.90;5.93;;;14.60;99.90;;;;;;4979963;28;20030;-84
2022/08/22 00:44:15;;;;;;;9.23;5.72;;;14.60;99.90;;;;;;4986826;28;20036;-84
2022/08/22 00:46:43;;;;;;;12.60;5.85;;;14.50;99.90;;;;;;4998908;28;20118;-84
2022/08/22 00:49:35;;;;;;;14.35;6.43;;;14.40;99.90;;;;;;4996308;28;20027;-84
2022/08/22 00:52:18;;;;;;;10.35;6.18;;;14.40;99.90;;;;;;4975600;28;20034;-85
2022/08/22 00:55:24;;;;;;;12.88;7.35;;;14.30;99.90;;;;;;5001541;28;20652;-84
2022/08/22 00:58:11;;;;;;;13.93;6.80;;;14.30;99.90;;;;;;4993767;28;20054;-84
2022/08/22 01:00:47;;;;;;;13.50;6.50;;;14.30;99.90;;;;;;4986906;28;20023;-84
2022/08/22 01:03:45;;;;;;;14.27;7.22;;;14.30;99.90;;;;;;4990211;28;20019;-84
2022/08/22 01:06:16;;;;;;;14.20;6.93;;;14.30;99.90;;;;;;4985853;28;20043;-84
2022/08/22 01:09:19;;;;;;;14.55;7.18;;;14.30;99.90;;;;;;4979722;28;20022;-84
2022/08/22 01:12:04;;;;;;;12.18;6.40;;;14.20;99.90;;;;;;4980992;28;20565;-84
2022/08/22 01:14:46;;;;;;;12.77;7.07;;;14.20;99.90;;;;;;4983234;28;20508;-84
2022/08/22 01:17:33;;;;;;;14.35;6.80;;;14.30;99.90;;;;;;4989505;28;20049;-84
2022/08/22 01:20:05;;;;;;;15.02;6.35;;;14.30;99.90;;;;;;4991149;28;20033;-84
2022/08/22 01:22:40;;;;;;;13.88;7.00;;;14.20;99.90;;;;;;5007114;28;20041;-82
2022/08/22 01:25:25;;;;;;;14.48;7.00;;;14.10;99.90;;;;;;4999747;28;20056;-82
2022/08/22 01:28:28;;;;;;;14.23;6.97;;;14.10;99.90;;;;;;4988492;28;20030;-83
2022/08/22 01:31:19;;;;;;;16.25;7.22;;;14.00;99.90;;;;;;4982709;28;20038;-83
2022/08/22 01:34:02;;;;;;;16.33;7.20;;;13.90;99.90;;;;;;4988050;28;20061;-83
2022/08/22 01:37:00;;;;;;;14.65;7.57;;;13.80;99.90;;;;;;5003761;28;20041;-83
2022/08/22 01:39:41;;;;;;;15.20;7.78;;;13.80;99.90;;;;;;4985436;28;20097;-83
2022/08/22 01:42:24;;;;;;;15.43;7.47;;;13.80;99.90;;;;;;4979198;28;20026;-83
2022/08/22 01:45:09;;;;;;;15.52;7.55;;;13.60;99.90;;;;;;4992011;28;20578;-83
2022/08/22 01:47:56;;;;;;;16.58;7.43;;;13.60;99.90;;;;;;4993578;28;20029;-83
2022/08/22 01:50:49;;;;;;;14.73;7.68;;;13.60;99.90;;;;;;4999796;28;20422;-83
2022/08/22 01:53:27;;;;;;;17.35;8.32;;;13.60;99.90;;;;;;4987264;28;20065;-83
2022/08/22 01:56:08;;;;;;;14.88;7.93;;;13.60;99.90;;;;;;4984024;28;20405;-83
2022/08/22 01:58:42;;;;;;;17.00;8.02;;;13.50;99.90;;;;;;4991713;28;20039;-83
2022/08/22 02:01:27;;;;;;;17.48;8.10;;;13.40;99.90;;;;;;4983422;28;20084;-83
2022/08/22 02:04:14;;;;;;;17.98;8.05;;;13.40;99.90;;;;;;4988567;28;20021;-83
2022/08/22 02:07:15;;;;;;;18.83;8.02;;;13.40;99.90;;;;;;5010203;28;20054;-83
2022/08/22 02:09:59;;;;;;;13.23;7.28;;;13.40;99.90;;;;;;4988099;28;20834;-83
2022/08/22 02:12:40;;;;;;;15.50;8.88;;;13.30;99.90;;;;;;4993796;28;20544;-83
2022/08/22 02:15:47;;;;;;;14.30;7.55;;;13.40;99.90;;;;;;4992689;28;20092;-82
2022/08/22 02:18:24;;;;;;;15.43;7.80;;;13.50;99.90;;;;;;4971168;28;20038;-83
2022/08/22 02:21:02;;;;;;;12.68;6.85;;;13.40;99.90;;;;;;4990219;28;20114;-83
2022/08/22 02:23:46;;;;;;;15.93;8.10;;;13.40;99.90;;;;;;5009217;28;20022;-83
2022/08/22 02:26:20;;;;;;;15.95;9.10;;;13.40;99.90;;;;;;5008854;28;20038;-83
2022/08/22 02:29:09;;;;;;;16.58;8.70;;;13.30;99.90;;;;;;4993575;28;20026;-83
2022/08/22 02:31:59;;;;;;;19.38;8.57;;;13.30;99.90;;;;;;5007520;28;20128;-83
2022/08/22 02:34:46;;;;;;;18.08;8.20;;;13.20;99.90;;;;;;4982675;28;20469;-83
2022/08/22 02:37:28;;;;;;;17.25;8.60;;;13.20;99.90;;;;;;5004038;28;20046;-83
2022/08/22 02:40:07;;;;;;;15.48;8.52;;;13.20;99.90;;;;;;4985092;28;20031;-83
2022/08/22 02:42:38;;;;;;;15.77;8.38;;;13.20;99.90;;;;;;4995378;28;20028;-83
2022/08/22 02:45:37;;;;;;;18.52;9.20;;;13.10;99.90;;;;;;4991855;28;20036;-83
2022/08/22 02:48:18;;;;;;;13.98;8.00;;;13.10;99.90;;;;;;4990607;28;20486;-83
2022/08/22 02:50:55;;;;;;;18.50;8.77;;;13.10;99.90;;;;;;4994396;28;20081;-83
2022/08/22 02:53:52;;;;;;;20.38;9.15;;;13.30;99.90;;;;;;4988024;28;20111;-83
2022/08/22 02:56:26;;;;;;;21.48;9.05;;;13.30;99.90;;;;;;4969074;28;20529;-83
2022/08/22 02:59:17;;;;;;;16.33;8.43;;;13.20;99.90;;;;;;4993265;28;20596;-83
2022/08/22 03:01:45;;;;;;;18.83;8.68;;;13.20;99.90;;;;;;4983430;28;20041;-83
2022/08/22 03:04:26;;;;;;;18.77;9.57;;;13.10;99.90;;;;;;4986310;28;20031;-83
2022/08/22 03:07:16;;;;;;;17.55;9.45;;;13.10;99.90;;;;;;4986114;28;20170;-83
2022/08/22 03:10:14;;;;;;;22.40;9.95;;;13.10;99.90;;;;;;4992060;28;20019;-83
2022/08/22 03:12:46;;;;;;;20.45;10.10;;;13.20;99.90;;;;;;4983315;28;20042;-83
2022/08/22 03:15:31;;;;;;;22.42;10.60;;;13.00;99.90;;;;;;4988040;28;20027;-83
2022/08/22 03:18:51;;;;;;;24.65;10.38;;;13.10;99.90;;;;;;4991656;28;20477;-83
2022/08/22 03:21:29;;;;;;;;;;;13.00;99.90;;;;;;4939045;29;20032;-83
2022/08/22 03:24:33;;;;;;;20.52;11.05;;;13.10;99.90;;;;;;4980902;28;19910;-83
2022/08/22 03:27:05;;;;;;;20.20;10.80;;;13.00;99.90;;;;;;4991570;28;20037;-83
2022/08/22 03:29:39;;;;;;;25.40;11.23;;;12.90;99.90;;;;;;4991439;28;20039;-83
2022/08/22 03:32:20;;;;;;;21.27;11.27;;;12.90;99.90;;;;;;4988643;28;20033;-83
2022/08/22 03:35:00;;;;;;;19.33;11.32;;;12.90;99.90;;;;;;4984850;28;20548;-83
2022/08/22 03:37:34;;;;;;;19.65;11.38;;;12.90;99.90;;;;;;4997232;28;20073;-83
2022/08/22 03:40:03;;;;;;;21.30;11.23;;;12.90;99.90;;;;;;4996635;28;20046;-83
2022/08/22 03:43:07;;;;;;;18.58;10.00;;;12.70;99.90;;;;;;4992311;28;20019;-83
2022/08/22 03:46:15;;;;;;;19.70;11.10;;;12.70;99.90;;;;;;5003640;28;20050;-82
2022/08/22 03:48:56;;;;;;;20.13;11.02;;;12.70;99.90;;;;;;4999874;28;20521;-83
2022/08/22 03:51:59;;;;;;;18.45;10.05;;;12.70;99.90;;;;;;4998848;28;20914;-83
2022/08/22 03:54:28;;;;;;;17.95;10.50;;;12.60;99.90;;;;;;4999772;28;20031;-83
2022/08/22 03:57:05;;;;;;;18.17;9.73;;;12.50;99.90;;;;;;4992705;28;20030;-82
2022/08/22 04:00:10;;;;;;;22.58;10.90;;;12.50;99.90;;;;;;4986558;28;20035;-83
2022/08/22 04:02:53;;;;;;;23.20;11.70;;;12.50;99.90;;;;;;4960618;28;20042;-83
2022/08/22 04:05:28;;;;;;;20.15;10.88;;;12.40;99.90;;;;;;4996800;28;20054;-83
2022/08/22 04:08:20;;;;;;;23.15;11.32;;;12.40;99.90;;;;;;4989522;28;20030;-83
2022/08/22 04:10:53;;;;;;;18.90;11.13;;;12.40;99.90;;;;;;4988204;28;20022;-83
2022/08/22 04:13:53;;;;;;;21.25;11.50;;;12.30;99.90;;;;;;5005459;28;20069;-83
2022/08/22 04:16:41;;;;;;;24.27;11.87;;;12.30;99.90;;;;;;5003980;28;20026;-83
2022/08/22 04:19:34;;;;;;;21.40;11.38;;;12.40;99.90;;;;;;4984039;28;20269;-83
2022/08/22 04:22:07;;;;;;;19.52;11.68;;;12.40;99.90;;;;;;4986515;28;20054;-83
2022/08/22 04:24:59;;;;;;;19.75;11.45;;;12.40;99.90;;;;;;5002364;28;20034;-82
2022/08/22 04:27:40;;;;;;;21.60;10.95;;;12.30;99.90;;;;;;5001492;28;20082;-83
2022/08/22 04:30:17;;;;;;;25.85;11.85;;;12.30;99.90;;;;;;4992338;28;20033;-82
2022/08/22 04:32:49;;;;;;;24.65;12.52;;;12.40;99.90;;;;;;4992770;28;20078;-83
2022/08/22 04:35:34;;;;;;;21.83;11.60;;;12.50;99.90;;;;;;4983623;28;20110;-82
2022/08/22 04:38:22;;;;;;;20.10;11.80;;;12.50;99.90;;;;;;4991935;28;20038;-83
2022/08/22 04:41:04;;;;;;;24.27;12.38;;;12.50;99.90;;;;;;4987224;28;20062;-83
2022/08/22 04:43:38;;;;;;;22.13;12.52;;;12.80;99.90;;;;;;4998088;28;20574;-84
2022/08/22 04:46:14;;;;;;;24.88;12.27;;;12.80;99.90;;;;;;4982645;28;20026;-83
2022/08/22 04:49:05;;;;;;;23.92;12.65;;;12.80;99.90;;;;;;4987577;28;20042;-83
2022/08/22 04:51:48;;;;;;;23.70;13.07;;;12.80;99.90;;;;;;4983825;28;20073;-84
2022/08/22 04:54:45;;;;;;;20.20;12.18;;;12.80;99.90;;;;;;4980922;28;20038;-84
2022/08/22 04:57:29;;;;;;;23.80;12.02;;;12.90;99.90;;;;;;4983730;28;20065;-83
2022/08/22 05:00:01;;;;;;;23.85;12.77;;;13.00;99.90;;;;;;4989929;28;20368;-84
2022/08/22 05:02:27;;;;;;;20.60;12.43;;;13.10;99.90;;;;;;4986588;28;20026;-83
2022/08/22 05:05:07;;;;;;;18.52;10.65;;;13.10;99.90;;;;;;4990513;28;20073;-83
2022/08/22 05:07:41;;;;;;;22.25;10.88;;;13.10;99.90;;;;;;4999861;28;20145;-83
2022/08/22 05:10:34;;;;;;;22.27;10.95;;;13.10;99.90;;;;;;4983329;28;20704;-83
2022/08/22 05:13:16;;;;;;;18.70;11.00;;;13.10;99.90;;;;;;4996936;28;20030;-83
2022/08/22 05:15:46;;;;;;;20.35;10.63;;;13.30;99.90;;;;;;4985573;28;20408;-83
2022/08/22 05:18:19;;;;;;;19.85;11.25;;;13.40;99.90;;;;;;4984020;28;20468;-83
2022/08/22 05:20:48;;;;;;;18.60;11.13;;;13.50;99.90;;;;;;4986526;28;20038;-83
2022/08/22 05:23:28;;;;;;;22.88;11.70;;;13.60;99.90;;;;;;4992346;28;20018;-83
2022/08/22 05:25:58;;;;;;;16.48;10.63;;;13.80;99.90;;;;;;4983078;28;20034;-83
2022/08/22 05:28:40;;;;;;;20.00;11.32;;;13.90;99.90;;;;;;4990685;28;20375;-83
2022/08/22 05:31:11;;;;;;;16.38;10.23;;;14.00;99.90;;;;;;4987810;28;20104;-83
2022/08/22 05:33:48;;;;;;;22.15;10.98;;;14.10;99.90;;;;;;4982430;28;20122;-83
2022/08/22 05:36:26;;;;;;;16.70;9.73;;;14.10;99.90;;;;;;4987778;28;21023;-83
2022/08/22 05:38:57;;;;;;;20.38;9.75;;;14.20;99.90;;;;;;4981696;28;20039;-83
2022/08/22 05:41:31;;;;;;;18.67;9.65;;;14.20;99.90;;;;;;4986242;28;20066;-84
2022/08/22 05:43:57;;;;;;;18.63;9.77;;;14.40;99.90;;;;;;4999012;28;20023;-83
2022/08/22 05:46:45;;;;;;;22.30;10.52;;;14.50;99.90;;;;;;4985859;28;20494;-83
2022/08/22 05:49:26;;;;;;;15.93;9.45;;;14.80;99.90;;;;;;4970060;28;20030;-83
2022/08/22 05:52:11;;;;;;;;;;;15.00;99.90;;;;;;4991854;28;20036;-84
2022/08/22 05:55:03;;;;;;;16.20;9.35;;;15.20;99.90;;;;;;4991419;28;19910;-84
2022/08/22 05:57:34;;;;;;;16.55;8.27;;;15.50;99.90;;;;;;4983097;28;20027;-83
2022/08/22 06:00:07;;;;;;;16.35;8.20;;;14.50;99.90;;;;;;4987760;28;20148;-83
2022/08/22 06:03:13;;;;;;;16.98;8.30;;;15.80;99.90;;;;;;4986831;28;20018;-81
2022/08/22 06:05:42;;;;;;;15.23;7.63;;;15.90;99.90;;;;;;4990800;28;20098;-81
2022/08/22 06:08:35;;;;;;;14.82;8.20;;;16.00;99.90;;;;;;4986724;28;20410;-81
2022/08/22 06:11:25;;;;;;;16.83;8.15;;;16.10;99.90;;;;;;4982807;28;20027;-81
2022/08/22 06:13:59;;;;;;;16.42;8.38;;;16.20;99.90;;;;;;4992490;28;20027;-81
2022/08/22 06:16:43;;;;;;;12.95;7.45;;;16.40;99.90;;;;;;4981654;28;20029;-82
2022/08/22 06:19:13;;;;;;;15.65;8.45;;;16.70;99.90;;;;;;4982071;28;20375;-81
2022/08/22 06:21:40;;;;;;;16.10;8.05;;;16.90;99.90;;;;;;4981250;28;20027;-80
2022/08/22 06:24:11;;;;;;;20.08;7.65;;;17.10;99.90;;;;;;4985797;28;20050;-80
2022/08/22 06:26:42;;;;;;;16.77;7.75;;;17.40;99.90;;;;;;4987134;28;20063;-80
2022/08/22 06:29:08;;;;;;;;;;;17.50;99.90;;;;;;4992128;28;20026;-80
2022/08/22 06:31:40;;;;;;;15.73;7.47;;;17.80;99.90;;;;;;4990843;28;19941;-80
2022/08/22 06:34:13;;;;;;;14.27;6.75;;;17.90;99.90;;;;;;5009020;28;20510;-80
2022/08/22 06:36:45;;;;;;;11.88;6.30;;;18.20;99.90;;;;;;4994407;28;20045;-80
2022/08/22 06:39:29;;;;;;;18.17;7.30;;;18.40;99.90;;;;;;4995539;28;20358;-80
2022/08/22 06:42:00;;;;;;;11.68;6.40;;;18.60;99.90;;;;;;4984376;28;20018;-80
2022/08/22 06:44:33;;;;;;;13.18;7.00;;;18.80;99.90;;;;;;4995438;28;20034;-80
2022/08/22 06:47:02;;;;;;;14.07;6.90;;;19.00;99.90;;;;;;4994051;28;20057;-81
2022/08/22 06:49:29;;;;;;;16.83;6.53;;;19.10;99.90;;;;;;4990174;28;20030;-80
2022/08/22 06:52:12;;;;;;;18.10;6.75;;;19.50;99.90;;;;;;4991215;28;20050;-80
2022/08/22 06:54:43;;;;;;;11.93;6.60;;;19.80;99.90;;;;;;4989812;28;20122;-80
2022/08/22 06:57:30;;;;;;;21.65;6.88;;;20.00;99.90;;;;;;4995073;28;20070;-81
2022/08/22 06:59:57;;;;;;;17.25;6.90;;;20.10;99.90;;;;;;4989180;28;20026;-81
2022/08/22 07:02:49;;;;;;;12.35;6.72;;;20.30;99.90;;;;;;4992936;28;20027;-80
2022/08/22 07:05:26;;;;;;;13.52;7.13;;;20.50;99.90;;;;;;4989140;28;20043;-81
2022/08/22 07:07:53;;;;;;;16.17;6.40;;;20.90;99.90;;;;;;4987867;28;20046;-81
2022/08/22 07:10:20;;;;;;;13.20;6.55;;;21.00;99.90;;;;;;4985893;28;20533;-80
2022/08/22 07:12:50;;;;;;;11.57;6.68;;;21.30;99.90;;;;;;4993122;28;20027;-81
2022/08/22 07:15:35;;;;;;;14.57;6.88;;;21.50;99.90;;;;;;4992090;28;20417;-81
2022/08/22 07:18:05;;;;;;;10.27;5.63;;;21.60;99.90;;;;;;4983334;28;20118;-81
2022/08/22 07:20:37;;;;;;;13.00;5.63;;;21.90;99.90;;;;;;4987230;28;20033;-80
2022/08/22 07:23:08;;;;;;;12.30;5.95;;;22.20;99.90;;;;;;4988142;28;20026;-81
2022/08/22 07:25:45;;;;;;;12.20;5.80;;;22.30;99.90;;;;;;4990664;28;20038;-80
2022/08/22 07:28:29;;;;;;;13.02;6.35;;;21.90;99.90;;;;;;4991015;28;20033;-80
2022/08/22 07:31:05;;;;;;;15.45;6.85;;;21.50;99.90;;;;;;4982916;28;20036;-80
2022/08/22 07:33:48;;;;;;;11.38;6.07;;;21.60;99.90;;;;;;4991993;28;20027;-80
2022/08/22 07:36:37;;;;;;;12.45;6.30;;;21.50;99.90;;;;;;4980593;28;20030;-80
2022/08/22 07:39:37;;;;;;;14.30;5.75;;;21.50;99.90;;;;;;4987783;28;20026;-80
2022/08/22 07:42:21;;;;;;;12.55;5.00;;;21.90;99.90;;;;;;4984740;28;20030;-80
2022/08/22 07:45:12;;;;;;;11.90;4.78;;;21.90;99.90;;;;;;4990629;28;20033;-80
2022/08/22 07:48:05;;;;;;;9.02;4.07;;;21.80;99.90;;;;;;4990317;28;20011;-81
2022/08/22 07:50:38;;;;;;;10.40;3.83;;;21.80;99.90;;;;;;4986387;28;20418;-80
2022/08/22 07:53:28;;;;;;;12.98;4.57;;;21.80;99.90;;;;;;4988749;28;20596;-81
2022/08/22 07:55:55;;;;;;;;;;;22.10;99.90;;;;;;4990658;28;20046;-81
2022/08/22 07:58:24;;;;;;;10.38;4.80;;;22.30;99.90;;;;;;4990428;28;19995;-81
2022/08/22 08:00:52;;;;;;;10.30;3.90;;;22.60;99.90;;;;;;4990017;28;20936;-80
2022/08/22 08:03:22;;;;;;;8.85;3.50;;;22.80;99.90;;;;;;4988019;28;20278;-80
2022/08/22 08:05:48;;;;;;;10.85;4.10;;;22.90;99.90;;;;;;4987766;28;20061;-81
2022/08/22 08:08:29;;;;;;;11.35;3.75;;;23.40;99.90;;;;;;4989581;28;20153;-81
2022/08/22 08:10:58;;;;;;;9.90;4.22;;;23.50;99.90;;;;;;4991095;28;20275;-81
2022/08/22 08:13:35;;;;;;;7.38;3.30;;;23.70;99.90;;;;;;4982397;28;20534;-81
2022/08/22 08:16:05;;;;;;;8.35;3.70;;;23.80;99.90;;;;;;4990231;28;20077;-81
2022/08/22 08:18:34;;;;;;;9.23;3.63;;;23.90;99.90;;;;;;4987284;28;20733;-81
2022/08/22 08:21:03;;;;;;;9.77;3.20;;;24.00;99.90;;;;;;4996495;28;20601;-81
2022/08/22 08:23:31;;;;;;;;;;;24.30;99.90;;;;;;5003232;28;20060;-81
2022/08/22 08:26:14;;;;;;;8.88;3.00;;;24.30;99.90;;;;;;4986546;28;19931;-81
2022/08/22 08:28:50;;;;;;;11.32;2.90;;;24.40;99.60;;;;;;4982211;28;20027;-81
2022/08/22 08:31:30;;;;;;;8.18;2.78;;;25.20;98.80;;;;;;4982137;28;20387;-81
2022/08/22 08:34:07;;;;;;;9.13;2.85;;;26.30;95.00;;;;;;4985307;28;20053;-81
2022/08/22 08:36:38;;;;;;;9.18;2.53;;;27.10;93.30;;;;;;4977740;28;20039;-81
2022/08/22 08:39:13;;;;;;;6.78;2.28;;;27.00;91.00;;;;;;4988645;28;20041;-81
2022/08/22 08:42:06;;;;;;;8.75;2.20;;;26.60;92.50;;;;;;4983069;28;20023;-81
2022/08/22 08:44:53;;;;;;;11.15;2.38;;;26.80;92.00;;;;;;4983570;28;20105;-81
2022/08/22 08:47:42;;;;;;;6.57;1.83;;;27.50;87.90;;;;;;4981442;28;20490;-81
2022/08/22 08:50:37;;;;;;;6.43;2.00;;;27.60;88.90;;;;;;4985697;28;20152;-82
2022/08/22 08:53:23;;;;;;;6.95;1.77;;;27.70;86.50;;;;;;4952195;28;20531;-81
2022/08/22 08:56:09;;;;;;;6.35;2.00;;;27.70;85.10;;;;;;4983950;28;20038;-81
2022/08/22 08:58:45;;;;;;;6.50;1.90;;;28.00;84.00;;;;;;4996509;28;20135;-81
2022/08/22 09:01:15;;;;;;;9.07;2.85;;;27.60;84.50;;;;;;4988006;28;20030;-81
2022/08/22 09:04:18;;;;;;;7.07;1.73;;;27.50;87.00;;;;;;4988034;28;20065;-82
2022/08/22 09:07:21;;;;;;;8.20;2.22;;;28.10;83.60;;;;;;4983194;28;20555;-81
2022/08/22 09:10:17;;;;;;;6.35;1.80;;;28.60;79.80;;;;;;4994723;28;20031;-81
2022/08/22 09:13:05;;;;;;;7.68;2.25;;;28.70;80.90;;;;;;4973087;28;20039;-81
2022/08/22 09:15:46;;;;;;;6.38;2.15;;;28.90;80.20;;;;;;4985923;28;20156;-81
2022/08/22 09:18:32;;;;;;;5.88;1.92;;;29.30;80.60;;;;;;4995515;28;20057;-81
2022/08/22 09:21:24;;;;;;;9.23;2.20;;;29.80;78.30;;;;;;4994658;28;20023;-81
2022/08/22 09:24:34;;;;;;;7.45;2.30;;;29.20;79.40;;;;;;4974152;28;20022;-81
2022/08/22 09:27:09;;;;;;;6.75;2.13;;;28.80;78.80;;;;;;4986293;28;20043;-81
2022/08/22 09:29:38;;;;;;;5.45;1.80;;;29.80;78.90;;;;;;4987149;28;20031;-81
2022/08/22 09:32:20;;;;;;;7.55;2.28;;;29.40;76.00;;;;;;4988438;28;20122;-81
2022/08/22 09:34:48;;;;;;;7.03;1.98;;;28.30;78.40;;;;;;4977902;28;20699;-81
2022/08/22 09:37:40;;;;;;;5.82;1.92;;;28.90;79.40;;;;;;5000772;28;20057;-81
2022/08/22 09:40:25;;;;;;;7.25;2.13;;;29.60;76.90;;;;;;4991925;28;20041;-81
2022/08/22 09:43:01;;;;;;;9.32;2.10;;;29.00;77.30;;;;;;4978815;28;20027;-81
2022/08/22 09:45:44;;;;;;;9.77;2.20;;;28.50;79.40;;;;;;4996601;28;20508;-81
2022/08/22 09:48:37;;;;;;;12.60;2.72;;;28.20;78.60;;;;;;4988703;28;20072;-82
2022/08/22 09:51:13;;;;;;;9.15;2.63;;;28.70;77.50;;;;;;4983229;28;20920;-81
2022/08/22 09:54:09;;;;;;;8.27;2.10;;;28.20;76.80;;;;;;4990896;28;20027;-81
2022/08/22 09:57:00;;;;;;;5.70;1.92;;;28.50;78.10;;;;;;4991563;28;20411;-81
2022/08/22 09:59:54;;;;;;;7.60;2.00;;;29.00;76.90;;;;;;4982359;28;20027;-81
2022/08/22 10:02:39;;;;;;;8.50;2.33;;;29.10;76.10;;;;;;5005453;28;20030;-81
2022/08/22 10:05:23;;;;;;;8.57;2.08;;;29.50;76.20;;;;;;4998677;28;20137;-81
2022/08/22 10:08:02;;;;;;;6.55;2.20;;;30.10;74.60;;;;;;4997596;28;20118;-81
2022/08/22 10:10:45;;;;;;;7.57;2.03;;;29.90;73.70;;;;;;4986274;28;20077;-81
2022/08/22 10:13:14;;;;;;;6.88;2.08;;;30.70;74.40;;;;;;4990087;28;20027;-81
2022/08/22 10:15:55;;;;;;;7.30;2.00;;;30.10;74.00;;;;;;4995914;28;20315;-81
2022/08/22 10:18:49;;;;;;;8.23;1.90;;;30.70;74.00;;;;;;4990243;28;20029;-81
2022/08/22 10:21:14;;;;;;;9.90;2.10;;;30.70;73.30;;;;;;4985705;28;20026;-81
2022/08/22 10:23:50;;;;;;;8.27;2.00;;;30.40;72.10;;;;;;4988261;28;20125;-82
2022/08/22 10:26:41;;;;;;;6.13;2.00;;;30.70;73.50;;;;;;4987981;28;20057;-81
2022/08/22 10:29:24;;;;;;;6.25;2.05;;;32.00;71.60;;;;;;4997700;28;20581;-81
2022/08/22 10:31:56;;;;;;;6.90;1.88;;;31.80;68.20;;;;;;4984438;28;20034;-81
2022/08/22 10:34:31;;;;;;;6.97;2.00;;;31.50;70.90;;;;;;4991090;28;20062;-82
2022/08/22 10:37:32;;;;;;;7.47;2.00;;;31.30;70.20;;;;;;4984591;28;20077;-81
2022/08/22 10:40:11;;;;;;;6.95;1.92;;;30.70;71.40;;;;;;4982925;28;20193;-81
2022/08/22 10:43:12;;;;;;;8.18;2.40;;;30.80;72.00;;;;;;4998306;28;20030;-81
2022/08/22 10:45:53;;;;;;;7.22;2.42;;;31.20;70.20;;;;;;4987835;28;20394;-81
2022/08/22 10:48:31;;;;;;;5.88;1.95;;;32.60;68.80;;;;;;4993567;28;20027;-82
2022/08/22 10:51:04;;;;;;;6.45;2.15;;;32.90;69.40;;;;;;4982454;28;20031;-81
2022/08/22 10:54:05;;;;;;;7.22;2.03;;;33.30;65.60;;;;;;4992358;28;20490;-81
2022/08/22 10:56:47;;;;;;;11.27;2.50;;;32.90;66.20;;;;;;4976291;28;20163;-83
2022/08/22 10:59:41;;;;;;;8.70;2.53;;;32.70;66.20;;;;;;4982912;28;20434;-81
2022/08/22 11:02:20;;;;;;;5.82;1.92;;;32.90;66.80;;;;;;4982580;28;20034;-81
2022/08/22 11:04:57;;;;;;;9.30;2.17;;;32.60;67.30;;;;;;4994606;28;20050;-81
2022/08/22 11:07:35;;;;;;;7.88;2.83;;;32.90;66.90;;;;;;4989414;28;20940;-81
2022/08/22 11:10:14;;;;;;;12.68;2.33;;;32.60;66.60;;;;;;4986054;28;20061;-81
2022/08/22 11:12:46;;;;;;;5.97;2.08;;;33.30;66.90;;;;;;4986063;28;20026;-81
2022/08/22 11:15:18;;;;;;;8.55;2.40;;;33.40;67.00;;;;;;4999878;28;20407;-81
2022/08/22 11:17:59;;;;;;;7.90;2.45;;;33.40;66.90;;;;;;4993708;28;20023;-81
2022/08/22 11:20:34;;;;;;;6.35;2.08;;;33.90;65.20;;;;;;4998594;28;20784;-81
2022/08/22 11:23:19;;;;;;;6.45;2.38;;;33.70;64.40;;;;;;4987234;28;20042;-82
2022/08/22 11:25:50;;;;;;;7.38;2.10;;;34.00;64.70;;;;;;4988339;28;20035;-82
2022/08/22 11:28:38;;;;;;;6.07;2.17;;;33.90;64.50;;;;;;4992800;28;20102;-81
2022/08/22 11:31:15;;;;;;;8.25;2.30;;;33.60;64.70;;;;;;5000862;28;20118;-81
2022/08/22 11:34:09;;;;;;;7.88;2.60;;;33.30;65.60;;;;;;5002966;28;20128;-82
2022/08/22 11:36:43;;;;;;;7.22;2.28;;;33.20;65.50;;;;;;4999301;28;20340;-82
2022/08/22 11:39:44;;;;;;;6.68;2.10;;;33.30;64.20;;;;;;4984868;28;20118;-82
2022/08/22 11:42:12;;;;;;;6.75;2.17;;;33.60;65.80;;;;;;4983426;28;20080;-82
2022/08/22 11:44:53;;;;;;;6.40;2.38;;;33.80;64.70;;;;;;5003457;28;20072;-82
2022/08/22 11:47:21;;;;;;;9.68;2.30;;;33.50;64.30;;;;;;4986616;28;20034;-81
2022/08/22 11:50:10;;;;;;;7.15;2.65;;;32.70;65.60;;;;;;4991548;28;20034;-81
2022/08/22 11:52:49;;;;;;;8.07;2.38;;;32.60;65.40;;;;;;4982014;28;20042;-81
2022/08/22 11:55:39;;;;;;;6.93;2.17;;;33.20;66.40;;;;;;4999279;28;20077;-82
2022/08/22 11:58:29;;;;;;;7.45;2.15;;;35.10;65.00;;;;;;4982181;28;20270;-82
2022/08/22 12:01:03;;;;;;;6.35;2.63;;;36.10;63.30;;;;;;4983129;28;20034;-82
2022/08/22 12:03:48;;;;;;;7.00;2.30;;;35.60;60.50;;;;;;4981495;28;20069;-82
2022/08/22 12:06:16;;;;;;;9.82;2.67;;;36.30;61.30;;;;;;4985422;28;20047;-82
2022/08/22 12:08:50;;;;;;;8.43;2.30;;;36.50;59.90;;;;;;5005887;28;20034;-82
2022/08/22 12:11:57;;;;;;;6.93;2.50;;;35.90;62.10;;;;;;4982493;28;20038;-82
2022/08/22 12:14:54;;;;;;;6.72;2.47;;;35.50;60.60;;;;;;4979955;28;20092;-81
2022/08/22 12:17:58;;;;;;;7.82;2.10;;;35.70;60.00;;;;;;4994052;28;20113;-82
2022/08/22 12:20:41;;;;;;;8.75;2.40;;;36.40;59.10;;;;;;4983870;28;20079;-81
2022/08/22 12:23:19;;;;;;;7.88;2.30;;;36.70;59.30;;;;;;4998753;28;20129;-82
2022/08/22 12:26:22;;;;;;;8.90;2.30;;;36.80;59.10;;;;;;4983816;28;20122;-82
2022/08/22 12:29:12;;;;;;;7.43;2.67;;;35.60;59.10;;;;;;4977983;28;20089;-81
2022/08/22 12:32:01;;;;;;;7.15;2.40;;;34.40;60.20;;;;;;4992564;28;20510;-82
2022/08/22 12:34:35;;;;;;;9.90;2.63;;;33.90;60.90;;;;;;4978014;28;20659;-81
2022/08/22 12:37:24;;;;;;;7.85;2.75;;;35.20;60.80;;;;;;4992000;28;20022;-82
2022/08/22 12:40:17;;;;;;;5.60;2.20;;;35.80;59.30;;;;;;5008819;28;20023;-82
2022/08/22 12:43:11;;;;;;;6.95;2.70;;;35.90;60.70;;;;;;4987672;28;20104;-81
2022/08/22 12:45:43;;;;;;;6.75;2.25;;;34.80;60.60;;;;;;4989860;28;20057;-82
2022/08/22 12:48:26;;;;;;;6.55;2.50;;;33.90;62.70;;;;;;4989224;28;20058;-81
2022/08/22 12:51:30;;;;;;;7.00;2.45;;;33.70;62.10;;;;;;4986679;28;20037;-82
2022/08/22 12:54:37;;;;;;;8.88;2.60;;;32.90;62.60;;;;;;4987840;28;20041;-82
2022/08/22 12:57:25;;;;;;;6.65;2.50;;;32.40;62.40;;;;;;4984262;28;20068;-82
2022/08/22 12:59:58;;;;;;;7.45;2.60;;;32.10;64.70;;;;;;4982958;28;20671;-81
2022/08/22 13:02:33;;;;;;;19.38;2.90;;;31.00;65.40;;;;;;4988341;28;20204;-81
2022/08/22 13:05:12;;;;;;;6.50;3.00;;;31.00;65.80;;;;;;4987100;28;20054;-81
2022/08/22 13:07:41;;;;;;;8.00;2.75;;;30.60;65.60;;;;;;4988776;28;20207;-82
2022/08/22 13:10:07;;;;;;;7.57;2.90;;;30.20;65.80;;;;;;4989345;28;20160;-82
2022/08/22 13:12:55;;;;;;;8.52;2.70;;;30.50;65.00;;;;;;4999983;28;20937;-81
2022/08/22 13:15:30;;;;;;;6.93;3.00;;;31.00;65.20;;;;;;4980236;28;20038;-82
2022/08/22 13:17:58;;;;;;;9.77;2.70;;;30.70;66.70;;;;;;4992107;28;20270;-82
2022/08/22 13:20:31;;;;;;;10.35;2.90;;;31.10;66.20;;;;;;4986908;28;20018;-81
2022/08/22 13:23:00;;;;;;;6.88;2.80;;;31.50;65.40;;;;;;4988515;28;20114;-82
2022/08/22 13:25:28;;;;;;;8.20;2.50;;;31.80;63.90;;;;;;4982546;28;20586;-82
2022/08/22 13:27:56;;;;;;;7.73;2.70;;;31.70;64.10;;;;;;4987326;28;20022;-82
2022/08/22 13:30:29;;;;;;;10.10;2.88;;;31.60;63.70;;;;;;4983742;28;20089;-82
2022/08/22 13:33:12;;;;;;;9.77;2.97;;;31.60;63.10;;;;;;4991044;28;20042;-82
2022/08/22 13:35:43;;;;;;;6.97;2.80;;;31.20;65.20;;;;;;4989829;28;20029;-81
2022/08/22 13:38:15;;;;;;;8.23;2.53;;;30.90;65.10;;;;;;4986190;28;20157;-82
2022/08/22 13:40:46;;;;;;;8.75;3.00;;;30.40;66.50;;;;;;4985412;28;20023;-82
2022/08/22 13:43:25;;;;;;;6.30;2.60;;;30.10;68.70;;;;;;4987026;28;20026;-82
2022/08/22 13:45:59;;;;;;;7.15;2.55;;;30.20;67.60;;;;;;4985918;28;20101;-81
2022/08/22 13:48:30;;;;;;;7.22;2.95;;;30.50;66.20;;;;;;4984942;28;20030;-82
2022/08/22 13:51:07;;;;;;;7.88;2.70;;;30.50;67.30;;;;;;4978981;28;20045;-82
2022/08/22 13:53:43;;;;;;;7.60;2.60;;;30.80;67.60;;;;;;4987340;28;20023;-81